Terminal Aerodrome Forecast
Issued by NWS Lake Charles, LA

Home | Current Version | Previous Version | Text Only | Print | Product List | Glossary On
Versions: 1 2 3 4 5 6 7 8 9 10 11 12 13 14 15 16 17 18 19
918
FTUS44 KLCH 280747 AAA
TAFBPT
TAF AMD
KBPT 280747Z 2808/0106 16012G20KT P6SM VCSH BKN008 OVC035
      TEMPO 2808/2812 5SM BR SCT008 BKN025 BKN035
     FM281400 16010KT P6SM OVC015
      TEMPO 2815/2818 BKN025 BKN035
     FM281800 16017G24KT P6SM SCT028 OVC045=

USA.gov is the U.S. government's official web portal to all federal, state and local government web resources and services.